Capitol Logistics 3274


MYNN
Lynden Pindling International Airport
Nassau, BS
MYGF
Grand Bahama International Airport
Freeport, BS

Activity Log

Date Flight Route Aircraft Duration
09/14/2019 CPX674 PEACH BR65V ZFP SF34 0h 46m
09/04/2019 CPX674 PEACH BR65V ZFP SF34 0h 43m
06/25/2019 CPX674 PEACH BR65V ZFP SF34 0h 43m

Route Details

Aircraft Information
Primary: Saab 340AF
Backup: Not Available
Route Data
Distance: 113nm
Sched. Duration: 2h 00m
Avg. Duration: 0h 44m (-156m)
Times Flown: 3
Recm'd Route: PEACH BR65V ZFP
Planned Altitude: 16,000ft
Origin Wx: MYNN 281000Z 34007KT 9999 SCT025 BKN040 BKN100 20/13 A3013
Dest. Wx: MYGF 280000Z 36010KT 9999 BKN030 17/11 A3014
Notes:

Financial History
Total Freight: 14,280lbs
Average Load: 4,760lbs/flt
Fuel Used: 2,121lbs
Avg. Fuel Used: 707lbs/flt
Fuel Expense: $2,057
Avg. Fuel Expense: $686
Avg. Fuel Cost: $0.97/lbs
Total Gross Income: $15,994
Pilot Pay: $607
Total Expenses: $1,883
Total Revenue: $11,527
Average Revenue: $5,331.20